sensor_id;sensor_type;location;lat;lon;timestamp;P1;durP1;ratioP1;P2;durP2;ratioP2
53064;SDS011;38948;48.376;-4.312;2022-08-16T00:00:29;5.82;;;2.70;;
53064;SDS011;38948;48.376;-4.312;2022-08-16T00:02:58;4.93;;;2.17;;
53064;SDS011;38948;48.376;-4.312;2022-08-16T00:05:25;4.18;;;2.70;;
53064;SDS011;38948;48.376;-4.312;2022-08-16T00:07:52;5.97;;;2.58;;
53064;SDS011;38948;48.376;-4.312;2022-08-16T00:10:18;4.57;;;2.50;;
53064;SDS011;38948;48.376;-4.312;2022-08-16T00:12:46;6.93;;;2.70;;
53064;SDS011;38948;48.376;-4.312;2022-08-16T00:15:15;4.68;;;2.55;;
53064;SDS011;38948;48.376;-4.312;2022-08-16T00:17:45;5.07;;;2.75;;
53064;SDS011;38948;48.376;-4.312;2022-08-16T00:20:11;6.68;;;2.58;;
53064;SDS011;38948;48.376;-4.312;2022-08-16T00:22:37;5.55;;;2.70;;
53064;SDS011;38948;48.376;-4.312;2022-08-16T00:25:10;7.13;;;2.92;;
53064;SDS011;38948;48.376;-4.312;2022-08-16T00:27:38;5.63;;;2.70;;
53064;SDS011;38948;48.376;-4.312;2022-08-16T00:30:06;4.40;;;2.33;;
53064;SDS011;38948;48.376;-4.312;2022-08-16T00:32:38;8.07;;;2.55;;
53064;SDS011;38948;48.376;-4.312;2022-08-16T00:35:11;5.20;;;2.20;;
53064;SDS011;38948;48.376;-4.312;2022-08-16T00:37:39;6.43;;;2.58;;
53064;SDS011;38948;48.376;-4.312;2022-08-16T00:40:05;6.32;;;2.88;;
53064;SDS011;38948;48.376;-4.312;2022-08-16T00:42:33;6.93;;;2.72;;
53064;SDS011;38948;48.376;-4.312;2022-08-16T00:45:02;5.95;;;2.30;;
53064;SDS011;38948;48.376;-4.312;2022-08-16T00:47:38;4.45;;;2.85;;
53064;SDS011;38948;48.376;-4.312;2022-08-16T00:50:09;4.30;;;2.30;;
53064;SDS011;38948;48.376;-4.312;2022-08-16T00:52:35;5.28;;;2.40;;
53064;SDS011;38948;48.376;-4.312;2022-08-16T00:55:02;4.70;;;2.50;;
53064;SDS011;38948;48.376;-4.312;2022-08-16T00:57:28;7.70;;;2.55;;
53064;SDS011;38948;48.376;-4.312;2022-08-16T00:59:54;5.00;;;2.70;;
53064;SDS011;38948;48.376;-4.312;2022-08-16T01:02:20;4.57;;;2.53;;
53064;SDS011;38948;48.376;-4.312;2022-08-16T01:04:46;4.30;;;2.70;;
53064;SDS011;38948;48.376;-4.312;2022-08-16T01:07:12;7.50;;;3.08;;
53064;SDS011;38948;48.376;-4.312;2022-08-16T01:09:38;10.40;;;2.90;;
53064;SDS011;38948;48.376;-4.312;2022-08-16T01:12:05;3.55;;;2.35;;
53064;SDS011;38948;48.376;-4.312;2022-08-16T01:14:36;6.70;;;2.60;;
53064;SDS011;38948;48.376;-4.312;2022-08-16T01:17:06;5.88;;;3.15;;
53064;SDS011;38948;48.376;-4.312;2022-08-16T01:19:37;4.20;;;2.60;;
53064;SDS011;38948;48.376;-4.312;2022-08-16T01:22:18;9.35;;;3.17;;
53064;SDS011;38948;48.376;-4.312;2022-08-16T01:24:59;5.47;;;3.10;;
53064;SDS011;38948;48.376;-4.312;2022-08-16T01:27:38;6.63;;;3.15;;
53064;SDS011;38948;48.376;-4.312;2022-08-16T01:30:14;7.45;;;3.38;;
53064;SDS011;38948;48.376;-4.312;2022-08-16T01:32:44;7.93;;;3.10;;
53064;SDS011;38948;48.376;-4.312;2022-08-16T01:35:15;6.88;;;2.75;;
53064;SDS011;38948;48.376;-4.312;2022-08-16T01:37:47;4.93;;;2.77;;
53064;SDS011;38948;48.376;-4.312;2022-08-16T01:40:15;6.30;;;2.78;;
53064;SDS011;38948;48.376;-4.312;2022-08-16T01:42:43;6.78;;;3.40;;
53064;SDS011;38948;48.376;-4.312;2022-08-16T01:45:11;7.22;;;2.75;;
53064;SDS011;38948;48.376;-4.312;2022-08-16T01:47:38;5.68;;;2.47;;
53064;SDS011;38948;48.376;-4.312;2022-08-16T01:50:07;5.55;;;3.00;;
53064;SDS011;38948;48.376;-4.312;2022-08-16T01:52:33;6.82;;;2.70;;
53064;SDS011;38948;48.376;-4.312;2022-08-16T01:55:00;5.65;;;2.72;;
53064;SDS011;38948;48.376;-4.312;2022-08-16T01:57:26;6.97;;;3.03;;
53064;SDS011;38948;48.376;-4.312;2022-08-16T01:59:53;5.38;;;3.20;;
53064;SDS011;38948;48.376;-4.312;2022-08-16T02:02:19;6.05;;;2.67;;
53064;SDS011;38948;48.376;-4.312;2022-08-16T02:04:48;7.65;;;3.15;;
53064;SDS011;38948;48.376;-4.312;2022-08-16T02:07:13;5.05;;;2.75;;
53064;SDS011;38948;48.376;-4.312;2022-08-16T02:09:42;8.23;;;3.30;;
53064;SDS011;38948;48.376;-4.312;2022-08-16T02:12:09;6.07;;;3.25;;
53064;SDS011;38948;48.376;-4.312;2022-08-16T02:14:35;6.32;;;3.08;;
53064;SDS011;38948;48.376;-4.312;2022-08-16T02:17:04;6.88;;;2.72;;
53064;SDS011;38948;48.376;-4.312;2022-08-16T02:19:32;6.95;;;3.33;;
53064;SDS011;38948;48.376;-4.312;2022-08-16T02:21:59;4.60;;;2.80;;
53064;SDS011;38948;48.376;-4.312;2022-08-16T02:24:26;9.77;;;3.42;;
53064;SDS011;38948;48.376;-4.312;2022-08-16T02:26:52;6.40;;;3.28;;
53064;SDS011;38948;48.376;-4.312;2022-08-16T02:29:18;6.88;;;3.15;;
53064;SDS011;38948;48.376;-4.312;2022-08-16T02:31:48;3.95;;;2.95;;
53064;SDS011;38948;48.376;-4.312;2022-08-16T02:34:16;5.13;;;3.13;;
53064;SDS011;38948;48.376;-4.312;2022-08-16T02:36:44;7.10;;;3.47;;
53064;SDS011;38948;48.376;-4.312;2022-08-16T02:39:11;6.90;;;3.03;;
53064;SDS011;38948;48.376;-4.312;2022-08-16T02:41:39;7.78;;;2.90;;
53064;SDS011;38948;48.376;-4.312;2022-08-16T02:44:07;7.13;;;2.97;;
53064;SDS011;38948;48.376;-4.312;2022-08-16T02:46:38;7.05;;;3.25;;
53064;SDS011;38948;48.376;-4.312;2022-08-16T02:49:05;6.45;;;2.78;;
53064;SDS011;38948;48.376;-4.312;2022-08-16T02:51:32;6.55;;;3.10;;
53064;SDS011;38948;48.376;-4.312;2022-08-16T02:53:58;6.57;;;3.30;;
53064;SDS011;38948;48.376;-4.312;2022-08-16T02:56:24;8.55;;;3.65;;
53064;SDS011;38948;48.376;-4.312;2022-08-16T02:58:51;5.60;;;3.22;;
53064;SDS011;38948;48.376;-4.312;2022-08-16T03:01:20;5.30;;;3.05;;
53064;SDS011;38948;48.376;-4.312;2022-08-16T03:03:49;6.47;;;3.05;;
53064;SDS011;38948;48.376;-4.312;2022-08-16T03:06:16;7.22;;;3.28;;
53064;SDS011;38948;48.376;-4.312;2022-08-16T03:08:45;6.28;;;3.08;;
53064;SDS011;38948;48.376;-4.312;2022-08-16T03:11:12;6.22;;;3.58;;
53064;SDS011;38948;48.376;-4.312;2022-08-16T03:13:38;7.22;;;3.33;;
53064;SDS011;38948;48.376;-4.312;2022-08-16T03:16:05;5.22;;;3.28;;
53064;SDS011;38948;48.376;-4.312;2022-08-16T03:18:31;8.10;;;3.20;;
53064;SDS011;38948;48.376;-4.312;2022-08-16T03:20:57;8.43;;;3.30;;
53064;SDS011;38948;48.376;-4.312;2022-08-16T03:23:26;6.00;;;3.55;;
53064;SDS011;38948;48.376;-4.312;2022-08-16T03:25:52;5.80;;;3.40;;
53064;SDS011;38948;48.376;-4.312;2022-08-16T03:28:18;7.85;;;3.53;;
53064;SDS011;38948;48.376;-4.312;2022-08-16T03:30:44;8.23;;;3.50;;
53064;SDS011;38948;48.376;-4.312;2022-08-16T03:33:11;9.20;;;3.22;;
53064;SDS011;38948;48.376;-4.312;2022-08-16T03:35:38;5.40;;;3.25;;
53064;SDS011;38948;48.376;-4.312;2022-08-16T03:38:05;4.13;;;3.03;;
53064;SDS011;38948;48.376;-4.312;2022-08-16T03:40:33;9.48;;;3.20;;
53064;SDS011;38948;48.376;-4.312;2022-08-16T03:43:04;6.38;;;3.35;;
53064;SDS011;38948;48.376;-4.312;2022-08-16T03:45:35;6.72;;;3.00;;
53064;SDS011;38948;48.376;-4.312;2022-08-16T03:48:01;4.88;;;2.90;;
53064;SDS011;38948;48.376;-4.312;2022-08-16T03:50:29;8.63;;;3.88;;
53064;SDS011;38948;48.376;-4.312;2022-08-16T03:52:55;4.63;;;3.00;;
53064;SDS011;38948;48.376;-4.312;2022-08-16T03:55:21;5.57;;;3.15;;
53064;SDS011;38948;48.376;-4.312;2022-08-16T03:57:47;6.13;;;2.95;;
53064;SDS011;38948;48.376;-4.312;2022-08-16T04:00:15;8.07;;;3.17;;
53064;SDS011;38948;48.376;-4.312;2022-08-16T04:02:44;7.68;;;3.10;;
53064;SDS011;38948;48.376;-4.312;2022-08-16T04:05:11;9.23;;;3.20;;
53064;SDS011;38948;48.376;-4.312;2022-08-16T04:07:38;6.75;;;3.42;;
53064;SDS011;38948;48.376;-4.312;2022-08-16T04:10:08;7.97;;;3.03;;
53064;SDS011;38948;48.376;-4.312;2022-08-16T04:12:35;5.80;;;2.88;;
53064;SDS011;38948;48.376;-4.312;2022-08-16T04:15:04;6.20;;;3.33;;
53064;SDS011;38948;48.376;-4.312;2022-08-16T04:17:31;7.93;;;3.58;;
53064;SDS011;38948;48.376;-4.312;2022-08-16T04:19:57;5.97;;;3.17;;
53064;SDS011;38948;48.376;-4.312;2022-08-16T04:22:23;4.68;;;2.45;;
53064;SDS011;38948;48.376;-4.312;2022-08-16T04:24:50;4.60;;;2.78;;
53064;SDS011;38948;48.376;-4.312;2022-08-16T04:27:16;4.90;;;2.63;;
53064;SDS011;38948;48.376;-4.312;2022-08-16T04:29:41;4.50;;;2.67;;
53064;SDS011;38948;48.376;-4.312;2022-08-16T04:32:07;3.97;;;2.50;;
53064;SDS011;38948;48.376;-4.312;2022-08-16T04:34:34;6.15;;;2.72;;
53064;SDS011;38948;48.376;-4.312;2022-08-16T04:37:01;15.00;;;4.30;;
53064;SDS011;38948;48.376;-4.312;2022-08-16T04:39:27;3.83;;;2.40;;
53064;SDS011;38948;48.376;-4.312;2022-08-16T04:41:55;4.85;;;2.60;;
53064;SDS011;38948;48.376;-4.312;2022-08-16T04:44:21;3.35;;;2.47;;
53064;SDS011;38948;48.376;-4.312;2022-08-16T04:46:47;3.05;;;2.40;;
53064;SDS011;38948;48.376;-4.312;2022-08-16T04:49:13;4.40;;;2.63;;
53064;SDS011;38948;48.376;-4.312;2022-08-16T04:51:39;5.20;;;2.80;;
53064;SDS011;38948;48.376;-4.312;2022-08-16T04:54:08;3.00;;;2.30;;
53064;SDS011;38948;48.376;-4.312;2022-08-16T04:56:35;5.88;;;2.80;;
53064;SDS011;38948;48.376;-4.312;2022-08-16T04:59:02;4.55;;;2.78;;
53064;SDS011;38948;48.376;-4.312;2022-08-16T05:01:28;4.90;;;2.65;;
53064;SDS011;38948;48.376;-4.312;2022-08-16T05:03:53;3.67;;;2.55;;
53064;SDS011;38948;48.376;-4.312;2022-08-16T05:06:19;5.90;;;2.85;;
53064;SDS011;38948;48.376;-4.312;2022-08-16T05:08:46;3.22;;;2.47;;
53064;SDS011;38948;48.376;-4.312;2022-08-16T05:11:13;3.70;;;2.67;;
53064;SDS011;38948;48.376;-4.312;2022-08-16T05:13:41;4.13;;;2.58;;
53064;SDS011;38948;48.376;-4.312;2022-08-16T05:16:13;4.22;;;2.55;;
53064;SDS011;38948;48.376;-4.312;2022-08-16T05:18:40;7.60;;;2.60;;
53064;SDS011;38948;48.376;-4.312;2022-08-16T05:21:07;4.25;;;2.67;;
53064;SDS011;38948;48.376;-4.312;2022-08-16T05:23:33;5.88;;;2.83;;
53064;SDS011;38948;48.376;-4.312;2022-08-16T05:25:59;3.67;;;2.55;;
53064;SDS011;38948;48.376;-4.312;2022-08-16T05:28:26;7.75;;;3.20;;
53064;SDS011;38948;48.376;-4.312;2022-08-16T05:30:52;4.78;;;3.00;;
53064;SDS011;38948;48.376;-4.312;2022-08-16T05:33:18;4.97;;;2.70;;
53064;SDS011;38948;48.376;-4.312;2022-08-16T05:35:45;3.83;;;2.75;;
53064;SDS011;38948;48.376;-4.312;2022-08-16T05:38:13;5.03;;;2.67;;
53064;SDS011;38948;48.376;-4.312;2022-08-16T05:40:39;3.30;;;2.60;;
53064;SDS011;38948;48.376;-4.312;2022-08-16T05:43:05;5.65;;;2.88;;
53064;SDS011;38948;48.376;-4.312;2022-08-16T05:45:30;4.95;;;2.90;;
53064;SDS011;38948;48.376;-4.312;2022-08-16T05:47:56;5.60;;;2.50;;
53064;SDS011;38948;48.376;-4.312;2022-08-16T05:50:23;9.77;;;2.78;;
53064;SDS011;38948;48.376;-4.312;2022-08-16T05:52:49;4.60;;;2.70;;
53064;SDS011;38948;48.376;-4.312;2022-08-16T05:55:15;4.20;;;2.60;;
53064;SDS011;38948;48.376;-4.312;2022-08-16T05:57:42;6.15;;;2.75;;
53064;SDS011;38948;48.376;-4.312;2022-08-16T06:00:09;3.60;;;2.30;;
53064;SDS011;38948;48.376;-4.312;2022-08-16T06:02:36;3.50;;;2.33;;
53064;SDS011;38948;48.376;-4.312;2022-08-16T06:05:03;4.05;;;2.25;;
53064;SDS011;38948;48.376;-4.312;2022-08-16T06:07:31;3.85;;;2.83;;
53064;SDS011;38948;48.376;-4.312;2022-08-16T06:09:57;4.10;;;2.50;;
53064;SDS011;38948;48.376;-4.312;2022-08-16T06:12:24;5.63;;;2.33;;
53064;SDS011;38948;48.376;-4.312;2022-08-16T06:14:51;4.13;;;2.30;;
53064;SDS011;38948;48.376;-4.312;2022-08-16T06:17:17;6.93;;;2.30;;
53064;SDS011;38948;48.376;-4.312;2022-08-16T06:19:43;4.80;;;2.42;;
53064;SDS011;38948;48.376;-4.312;2022-08-16T06:22:09;4.35;;;2.70;;
53064;SDS011;38948;48.376;-4.312;2022-08-16T06:24:35;4.32;;;2.20;;
53064;SDS011;38948;48.376;-4.312;2022-08-16T06:27:01;4.00;;;2.25;;
53064;SDS011;38948;48.376;-4.312;2022-08-16T06:29:28;3.22;;;2.20;;
53064;SDS011;38948;48.376;-4.312;2022-08-16T06:31:53;4.22;;;2.22;;
53064;SDS011;38948;48.376;-4.312;2022-08-16T06:34:21;4.03;;;2.30;;
53064;SDS011;38948;48.376;-4.312;2022-08-16T06:36:49;3.17;;;2.33;;
53064;SDS011;38948;48.376;-4.312;2022-08-16T06:39:15;4.28;;;2.22;;
53064;SDS011;38948;48.376;-4.312;2022-08-16T06:41:41;3.80;;;2.10;;
53064;SDS011;38948;48.376;-4.312;2022-08-16T06:44:07;3.50;;;2.30;;
53064;SDS011;38948;48.376;-4.312;2022-08-16T06:46:35;6.78;;;2.30;;
53064;SDS011;38948;48.376;-4.312;2022-08-16T06:49:06;5.45;;;2.00;;
53064;SDS011;38948;48.376;-4.312;2022-08-16T06:51:33;3.65;;;2.65;;
53064;SDS011;38948;48.376;-4.312;2022-08-16T06:54:01;4.22;;;2.35;;
53064;SDS011;38948;48.376;-4.312;2022-08-16T06:56:28;2.90;;;2.10;;
53064;SDS011;38948;48.376;-4.312;2022-08-16T06:58:54;3.58;;;2.50;;
53064;SDS011;38948;48.376;-4.312;2022-08-16T07:01:20;4.65;;;2.60;;
53064;SDS011;38948;48.376;-4.312;2022-08-16T07:03:46;3.20;;;2.17;;
53064;SDS011;38948;48.376;-4.312;2022-08-16T07:06:12;3.95;;;2.60;;
53064;SDS011;38948;48.376;-4.312;2022-08-16T07:08:38;5.30;;;2.35;;
53064;SDS011;38948;48.376;-4.312;2022-08-16T07:11:06;2.42;;;2.08;;
53064;SDS011;38948;48.376;-4.312;2022-08-16T07:13:32;6.18;;;2.40;;
53064;SDS011;38948;48.376;-4.312;2022-08-16T07:16:00;5.35;;;2.15;;
53064;SDS011;38948;48.376;-4.312;2022-08-16T07:18:27;5.55;;;2.63;;
53064;SDS011;38948;48.376;-4.312;2022-08-16T07:20:52;6.28;;;2.60;;
53064;SDS011;38948;48.376;-4.312;2022-08-16T07:23:19;5.70;;;2.17;;
53064;SDS011;38948;48.376;-4.312;2022-08-16T07:25:45;5.05;;;2.38;;
53064;SDS011;38948;48.376;-4.312;2022-08-16T07:28:12;4.68;;;2.45;;
53064;SDS011;38948;48.376;-4.312;2022-08-16T07:30:39;5.88;;;2.17;;
53064;SDS011;38948;48.376;-4.312;2022-08-16T07:33:05;10.75;;;2.38;;
53064;SDS011;38948;48.376;-4.312;2022-08-16T07:35:32;2.92;;;1.88;;
53064;SDS011;38948;48.376;-4.312;2022-08-16T07:37:58;4.75;;;2.05;;
53064;SDS011;38948;48.376;-4.312;2022-08-16T07:40:24;4.57;;;2.38;;
53064;SDS011;38948;48.376;-4.312;2022-08-16T07:42:51;8.80;;;2.40;;
53064;SDS011;38948;48.376;-4.312;2022-08-16T07:45:17;4.30;;;2.38;;
53064;SDS011;38948;48.376;-4.312;2022-08-16T07:47:43;5.88;;;2.42;;
53064;SDS011;38948;48.376;-4.312;2022-08-16T07:50:10;3.20;;;2.50;;
53064;SDS011;38948;48.376;-4.312;2022-08-16T07:52:39;4.75;;;2.50;;
53064;SDS011;38948;48.376;-4.312;2022-08-16T07:55:06;3.08;;;2.15;;
53064;SDS011;38948;48.376;-4.312;2022-08-16T07:57:33;3.33;;;2.53;;
53064;SDS011;38948;48.376;-4.312;2022-08-16T07:59:59;3.40;;;2.10;;
53064;SDS011;38948;48.376;-4.312;2022-08-16T08:02:26;3.10;;;2.20;;
53064;SDS011;38948;48.376;-4.312;2022-08-16T08:04:52;4.05;;;3.28;;
53064;SDS011;38948;48.376;-4.312;2022-08-16T08:07:18;3.78;;;2.40;;
53064;SDS011;38948;48.376;-4.312;2022-08-16T08:09:44;5.15;;;2.17;;
53064;SDS011;38948;48.376;-4.312;2022-08-16T08:12:10;3.17;;;2.15;;
53064;SDS011;38948;48.376;-4.312;2022-08-16T08:14:36;2.90;;;2.40;;
53064;SDS011;38948;48.376;-4.312;2022-08-16T08:17:02;5.30;;;2.75;;
53064;SDS011;38948;48.376;-4.312;2022-08-16T08:19:31;4.78;;;2.40;;
53064;SDS011;38948;48.376;-4.312;2022-08-16T08:21:58;5.15;;;2.20;;
53064;SDS011;38948;48.376;-4.312;2022-08-16T08:24:24;4.03;;;2.35;;
53064;SDS011;38948;48.376;-4.312;2022-08-16T08:26:52;3.78;;;2.53;;
53064;SDS011;38948;48.376;-4.312;2022-08-16T08:29:19;3.75;;;2.40;;
53064;SDS011;38948;48.376;-4.312;2022-08-16T08:31:45;3.47;;;2.13;;
53064;SDS011;38948;48.376;-4.312;2022-08-16T08:34:10;6.13;;;2.22;;
53064;SDS011;38948;48.376;-4.312;2022-08-16T08:36:36;4.03;;;2.30;;
53064;SDS011;38948;48.376;-4.312;2022-08-16T08:39:04;2.85;;;2.30;;
53064;SDS011;38948;48.376;-4.312;2022-08-16T08:41:29;4.07;;;2.50;;
53064;SDS011;38948;48.376;-4.312;2022-08-16T08:43:56;2.97;;;2.10;;
53064;SDS011;38948;48.376;-4.312;2022-08-16T08:46:22;3.22;;;2.35;;
53064;SDS011;38948;48.376;-4.312;2022-08-16T08:48:50;3.20;;;2.17;;
53064;SDS011;38948;48.376;-4.312;2022-08-16T08:51:17;3.65;;;2.20;;
53064;SDS011;38948;48.376;-4.312;2022-08-16T08:53:43;5.03;;;1.95;;
53064;SDS011;38948;48.376;-4.312;2022-08-16T08:56:10;4.03;;;2.20;;
53064;SDS011;38948;48.376;-4.312;2022-08-16T08:58:37;3.75;;;1.58;;
53064;SDS011;38948;48.376;-4.312;2022-08-16T09:01:04;3.05;;;1.92;;
53064;SDS011;38948;48.376;-4.312;2022-08-16T09:03:31;8.65;;;1.90;;
53064;SDS011;38948;48.376;-4.312;2022-08-16T09:05:58;3.25;;;1.70;;
53064;SDS011;38948;48.376;-4.312;2022-08-16T09:08:24;2.80;;;1.50;;
53064;SDS011;38948;48.376;-4.312;2022-08-16T09:10:54;6.88;;;1.70;;
53064;SDS011;38948;48.376;-4.312;2022-08-16T09:13:21;4.72;;;2.22;;
53064;SDS011;38948;48.376;-4.312;2022-08-16T09:15:49;2.50;;;1.55;;
53064;SDS011;38948;48.376;-4.312;2022-08-16T09:18:15;4.50;;;1.50;;
53064;SDS011;38948;48.376;-4.312;2022-08-16T09:20:42;2.88;;;1.83;;
53064;SDS011;38948;48.376;-4.312;2022-08-16T09:23:09;3.55;;;1.75;;
53064;SDS011;38948;48.376;-4.312;2022-08-16T09:25:36;3.20;;;1.60;;
53064;SDS011;38948;48.376;-4.312;2022-08-16T09:28:02;3.20;;;1.63;;
53064;SDS011;38948;48.376;-4.312;2022-08-16T09:30:29;3.55;;;1.88;;
53064;SDS011;38948;48.376;-4.312;2022-08-16T09:32:58;3.88;;;1.38;;
53064;SDS011;38948;48.376;-4.312;2022-08-16T09:35:24;2.58;;;1.60;;
53064;SDS011;38948;48.376;-4.312;2022-08-16T09:37:50;3.53;;;1.30;;
53064;SDS011;38948;48.376;-4.312;2022-08-16T09:40:16;2.42;;;1.40;;
53064;SDS011;38948;48.376;-4.312;2022-08-16T09:42:42;4.07;;;1.40;;
53064;SDS011;38948;48.376;-4.312;2022-08-16T09:45:09;5.30;;;1.70;;
53064;SDS011;38948;48.376;-4.312;2022-08-16T09:47:36;3.42;;;1.42;;
53064;SDS011;38948;48.376;-4.312;2022-08-16T09:50:04;3.45;;;1.90;;
53064;SDS011;38948;48.376;-4.312;2022-08-16T09:52:31;2.55;;;1.25;;
53064;SDS011;38948;48.376;-4.312;2022-08-16T09:54:59;2.33;;;1.33;;
53064;SDS011;38948;48.376;-4.312;2022-08-16T09:57:27;4.07;;;1.30;;
53064;SDS011;38948;48.376;-4.312;2022-08-16T09:59:53;2.53;;;1.40;;
53064;SDS011;38948;48.376;-4.312;2022-08-16T10:02:19;3.75;;;1.10;;
53064;SDS011;38948;48.376;-4.312;2022-08-16T10:04:45;4.68;;;1.40;;
53064;SDS011;38948;48.376;-4.312;2022-08-16T10:07:11;4.15;;;1.13;;
53064;SDS011;38948;48.376;-4.312;2022-08-16T10:09:37;1.92;;;1.20;;
53064;SDS011;38948;48.376;-4.312;2022-08-16T10:12:03;4.97;;;1.10;;
53064;SDS011;38948;48.376;-4.312;2022-08-16T10:14:47;4.05;;;1.30;;
53064;SDS011;38948;48.376;-4.312;2022-08-16T10:17:14;1.50;;;1.20;;
53064;SDS011;38948;48.376;-4.312;2022-08-16T10:19:41;4.63;;;1.40;;
53064;SDS011;38948;48.376;-4.312;2022-08-16T10:22:07;2.75;;;0.98;;
53064;SDS011;38948;48.376;-4.312;2022-08-16T10:24:34;2.42;;;1.25;;
53064;SDS011;38948;48.376;-4.312;2022-08-16T10:26:59;2.63;;;1.17;;
53064;SDS011;38948;48.376;-4.312;2022-08-16T10:29:25;3.00;;;0.85;;
53064;SDS011;38948;48.376;-4.312;2022-08-16T10:31:51;1.65;;;0.93;;
53064;SDS011;38948;48.376;-4.312;2022-08-16T10:34:17;1.48;;;0.93;;
53064;SDS011;38948;48.376;-4.312;2022-08-16T10:36:42;1.20;;;0.80;;
53064;SDS011;38948;48.376;-4.312;2022-08-16T10:39:08;1.77;;;0.90;;
53064;SDS011;38948;48.376;-4.312;2022-08-16T10:41:36;2.83;;;0.63;;
53064;SDS011;38948;48.376;-4.312;2022-08-16T10:44:19;2.38;;;0.90;;
53064;SDS011;38948;48.376;-4.312;2022-08-16T10:46:45;3.42;;;0.90;;
53064;SDS011;38948;48.376;-4.312;2022-08-16T10:49:12;1.90;;;0.75;;
53064;SDS011;38948;48.376;-4.312;2022-08-16T10:51:40;2.47;;;1.08;;
53064;SDS011;38948;48.376;-4.312;2022-08-16T10:54:06;5.05;;;1.55;;
53064;SDS011;38948;48.376;-4.312;2022-08-16T10:56:34;2.83;;;0.80;;
53064;SDS011;38948;48.376;-4.312;2022-08-16T10:59:00;3.63;;;1.00;;
53064;SDS011;38948;48.376;-4.312;2022-08-16T11:01:26;2.67;;;0.90;;
53064;SDS011;38948;48.376;-4.312;2022-08-16T11:03:55;4.53;;;1.10;;
53064;SDS011;38948;48.376;-4.312;2022-08-16T11:06:21;2.72;;;1.33;;
53064;SDS011;38948;48.376;-4.312;2022-08-16T11:08:47;5.63;;;1.35;;
53064;SDS011;38948;48.376;-4.312;2022-08-16T11:11:13;4.45;;;1.10;;
53064;SDS011;38948;48.376;-4.312;2022-08-16T11:13:40;3.33;;;1.63;;
53064;SDS011;38948;48.376;-4.312;2022-08-16T11:16:07;6.85;;;1.67;;
53064;SDS011;38948;48.376;-4.312;2022-08-16T11:18:34;3.25;;;1.00;;
53064;SDS011;38948;48.376;-4.312;2022-08-16T11:21:00;5.10;;;1.00;;
53064;SDS011;38948;48.376;-4.312;2022-08-16T11:23:26;1.42;;;0.80;;
53064;SDS011;38948;48.376;-4.312;2022-08-16T11:25:53;3.03;;;0.70;;
53064;SDS011;38948;48.376;-4.312;2022-08-16T11:28:20;2.28;;;0.93;;
53064;SDS011;38948;48.376;-4.312;2022-08-16T11:30:47;4.38;;;0.60;;
53064;SDS011;38948;48.376;-4.312;2022-08-16T11:33:13;0.93;;;0.30;;
53064;SDS011;38948;48.376;-4.312;2022-08-16T11:35:39;2.60;;;0.60;;
53064;SDS011;38948;48.376;-4.312;2022-08-16T11:38:16;2.20;;;0.55;;
53064;SDS011;38948;48.376;-4.312;2022-08-16T11:40:54;0.75;;;0.40;;
53064;SDS011;38948;48.376;-4.312;2022-08-16T11:43:22;1.08;;;0.52;;
53064;SDS011;38948;48.376;-4.312;2022-08-16T11:45:54;3.70;;;0.55;;
53064;SDS011;38948;48.376;-4.312;2022-08-16T11:48:23;3.85;;;0.50;;
53064;SDS011;38948;48.376;-4.312;2022-08-16T11:50:51;0.90;;;0.50;;
53064;SDS011;38948;48.376;-4.312;2022-08-16T11:53:18;2.15;;;0.40;;
53064;SDS011;38948;48.376;-4.312;2022-08-16T11:55:45;0.93;;;0.32;;
53064;SDS011;38948;48.376;-4.312;2022-08-16T11:58:11;2.80;;;0.45;;
53064;SDS011;38948;48.376;-4.312;2022-08-16T12:00:38;5.75;;;0.60;;
53064;SDS011;38948;48.376;-4.312;2022-08-16T12:03:06;3.30;;;0.30;;
53064;SDS011;38948;48.376;-4.312;2022-08-16T12:05:32;0.77;;;0.30;;
53064;SDS011;38948;48.376;-4.312;2022-08-16T12:08:01;8.43;;;0.50;;
53064;SDS011;38948;48.376;-4.312;2022-08-16T12:10:29;2.13;;;0.30;;
53064;SDS011;38948;48.376;-4.312;2022-08-16T12:12:55;1.42;;;0.38;;
53064;SDS011;38948;48.376;-4.312;2022-08-16T12:15:20;1.00;;;0.32;;
53064;SDS011;38948;48.376;-4.312;2022-08-16T12:17:46;1.25;;;0.82;;
53064;SDS011;38948;48.376;-4.312;2022-08-16T12:20:14;1.05;;;0.30;;
53064;SDS011;38948;48.376;-4.312;2022-08-16T12:22:42;0.30;;;0.30;;
53064;SDS011;38948;48.376;-4.312;2022-08-16T12:25:10;0.90;;;0.22;;
53064;SDS011;38948;48.376;-4.312;2022-08-16T12:27:40;0.75;;;0.30;;
53064;SDS011;38948;48.376;-4.312;2022-08-16T12:30:06;0.60;;;0.22;;
53064;SDS011;38948;48.376;-4.312;2022-08-16T12:32:33;1.50;;;0.43;;
53064;SDS011;38948;48.376;-4.312;2022-08-16T12:34:59;3.70;;;0.65;;
53064;SDS011;38948;48.376;-4.312;2022-08-16T12:37:25;0.52;;;0.30;;
53064;SDS011;38948;48.376;-4.312;2022-08-16T12:39:53;2.08;;;0.50;;
53064;SDS011;38948;48.376;-4.312;2022-08-16T12:42:20;5.72;;;0.90;;
53064;SDS011;38948;48.376;-4.312;2022-08-16T12:44:47;5.28;;;0.60;;
53064;SDS011;38948;48.376;-4.312;2022-08-16T12:47:14;2.03;;;0.93;;
53064;SDS011;38948;48.376;-4.312;2022-08-16T12:49:59;2.28;;;0.73;;
53064;SDS011;38948;48.376;-4.312;2022-08-16T12:52:25;4.35;;;0.50;;
53064;SDS011;38948;48.376;-4.312;2022-08-16T12:54:52;0.65;;;0.40;;
53064;SDS011;38948;48.376;-4.312;2022-08-16T12:57:20;2.40;;;0.63;;
53064;SDS011;38948;48.376;-4.312;2022-08-16T12:59:47;4.13;;;0.90;;
53064;SDS011;38948;48.376;-4.312;2022-08-16T13:02:13;2.63;;;0.55;;
53064;SDS011;38948;48.376;-4.312;2022-08-16T13:04:39;2.50;;;0.50;;
53064;SDS011;38948;48.376;-4.312;2022-08-16T13:07:05;2.35;;;0.40;;
53064;SDS011;38948;48.376;-4.312;2022-08-16T13:09:31;5.85;;;0.52;;
53064;SDS011;38948;48.376;-4.312;2022-08-16T13:12:03;5.40;;;0.70;;
53064;SDS011;38948;48.376;-4.312;2022-08-16T13:14:41;2.40;;;0.57;;
53064;SDS011;38948;48.376;-4.312;2022-08-16T13:17:09;1.92;;;0.32;;
53064;SDS011;38948;48.376;-4.312;2022-08-16T13:19:37;1.75;;;0.45;;
53064;SDS011;38948;48.376;-4.312;2022-08-16T13:22:03;3.10;;;0.60;;
53064;SDS011;38948;48.376;-4.312;2022-08-16T13:24:29;3.45;;;0.63;;
53064;SDS011;38948;48.376;-4.312;2022-08-16T13:26:55;13.98;;;1.45;;
53064;SDS011;38948;48.376;-4.312;2022-08-16T13:29:21;6.85;;;1.52;;
53064;SDS011;38948;48.376;-4.312;2022-08-16T13:31:47;5.85;;;1.00;;
53064;SDS011;38948;48.376;-4.312;2022-08-16T13:34:13;6.93;;;0.90;;
53064;SDS011;38948;48.376;-4.312;2022-08-16T13:36:40;5.57;;;0.70;;
53064;SDS011;38948;48.376;-4.312;2022-08-16T13:39:07;4.50;;;0.80;;
53064;SDS011;38948;48.376;-4.312;2022-08-16T13:41:34;2.95;;;0.77;;
53064;SDS011;38948;48.376;-4.312;2022-08-16T13:44:01;1.50;;;0.60;;
53064;SDS011;38948;48.376;-4.312;2022-08-16T13:46:28;2.65;;;0.57;;
53064;SDS011;38948;48.376;-4.312;2022-08-16T13:48:56;3.45;;;0.77;;
53064;SDS011;38948;48.376;-4.312;2022-08-16T13:51:23;6.28;;;0.98;;
53064;SDS011;38948;48.376;-4.312;2022-08-16T13:53:51;2.45;;;0.65;;
53064;SDS011;38948;48.376;-4.312;2022-08-16T13:56:20;2.22;;;0.40;;
53064;SDS011;38948;48.376;-4.312;2022-08-16T13:58:48;2.13;;;0.70;;
53064;SDS011;38948;48.376;-4.312;2022-08-16T14:01:15;1.73;;;0.40;;
53064;SDS011;38948;48.376;-4.312;2022-08-16T14:03:44;2.58;;;0.50;;
53064;SDS011;38948;48.376;-4.312;2022-08-16T14:06:11;2.30;;;0.60;;
53064;SDS011;38948;48.376;-4.312;2022-08-16T14:08:38;2.08;;;0.77;;
53064;SDS011;38948;48.376;-4.312;2022-08-16T14:11:05;1.77;;;0.40;;
53064;SDS011;38948;48.376;-4.312;2022-08-16T14:13:32;2.47;;;0.85;;
53064;SDS011;38948;48.376;-4.312;2022-08-16T14:15:58;1.65;;;0.40;;
53064;SDS011;38948;48.376;-4.312;2022-08-16T14:18:24;2.67;;;0.77;;
53064;SDS011;38948;48.376;-4.312;2022-08-16T14:20:50;1.00;;;0.40;;
53064;SDS011;38948;48.376;-4.312;2022-08-16T14:23:16;2.25;;;0.52;;
53064;SDS011;38948;48.376;-4.312;2022-08-16T14:25:42;1.42;;;0.55;;
53064;SDS011;38948;48.376;-4.312;2022-08-16T14:28:08;1.92;;;1.00;;
53064;SDS011;38948;48.376;-4.312;2022-08-16T14:30:34;3.97;;;0.70;;
53064;SDS011;38948;48.376;-4.312;2022-08-16T14:33:01;5.35;;;0.60;;